createdAt,value
2023-11-15T00:00:38.704Z,1.80
2023-11-15T00:03:06.224Z,1.80
2023-11-15T00:05:34.559Z,1.80
2023-11-15T00:08:02.306Z,1.80
2023-11-15T00:10:29.810Z,1.80
2023-11-15T00:12:57.316Z,1.80
2023-11-15T00:15:24.978Z,1.80
2023-11-15T00:17:52.575Z,1.80
2023-11-15T00:20:20.479Z,1.80
2023-11-15T00:22:47.959Z,1.80
2023-11-15T00:25:17.998Z,1.90
2023-11-15T00:27:45.834Z,1.90
2023-11-15T00:30:14.894Z,1.80
2023-11-15T00:32:42.462Z,1.90
2023-11-15T00:35:13.767Z,1.90
2023-11-15T00:37:41.548Z,1.80
2023-11-15T00:40:12.323Z,1.90
2023-11-15T00:42:39.822Z,1.90
2023-11-15T00:45:10.270Z,1.90
2023-11-15T00:47:37.977Z,1.90
2023-11-15T00:50:06.552Z,1.90
2023-11-15T00:52:34.827Z,2.00
2023-11-15T00:55:02.378Z,2.00
2023-11-15T00:57:29.946Z,2.00
2023-11-15T00:59:57.451Z,2.00
2023-11-15T01:02:34.609Z,2.00
2023-11-15T01:05:02.301Z,2.10
2023-11-15T01:07:29.755Z,2.20
2023-11-15T01:09:57.313Z,2.20
2023-11-15T01:12:24.883Z,2.20
2023-11-15T01:14:52.582Z,2.20
2023-11-15T01:17:20.104Z,2.30
2023-11-15T01:19:47.678Z,2.30
2023-11-15T01:22:15.400Z,2.30
2023-11-15T01:24:43.186Z,2.30
2023-11-15T01:27:10.707Z,2.30
2023-11-15T01:29:38.401Z,2.30
2023-11-15T01:32:06.140Z,2.30
2023-11-15T01:34:33.595Z,2.30
2023-11-15T01:37:01.261Z,2.30
2023-11-15T01:39:29.877Z,2.30
2023-11-15T01:41:57.693Z,2.20
2023-11-15T01:44:26.553Z,2.20
2023-11-15T01:46:54.571Z,2.20
2023-11-15T01:49:23.798Z,2.20
2023-11-15T01:51:52.661Z,2.20
2023-11-15T01:54:23.228Z,2.20
2023-11-15T01:56:51.001Z,2.10
2023-11-15T01:59:18.696Z,2.10
2023-11-15T02:01:46.190Z,2.10
2023-11-15T02:04:13.893Z,2.10
2023-11-15T02:06:41.529Z,2.10
2023-11-15T02:09:10.097Z,2.10
2023-11-15T02:11:37.660Z,2.20
2023-11-15T02:14:05.326Z,2.10
2023-11-15T02:16:32.889Z,2.10
2023-11-15T02:19:00.436Z,2.10
2023-11-15T02:21:28.084Z,2.10
2023-11-15T02:23:56.780Z,2.10
2023-11-15T02:26:24.350Z,2.10
2023-11-15T02:28:51.955Z,2.00
2023-11-15T02:31:19.539Z,2.00
2023-11-15T02:33:47.018Z,2.00
2023-11-15T02:36:14.511Z,2.00
2023-11-15T02:38:42.151Z,2.00
2023-11-15T02:41:10.569Z,2.00
2023-11-15T02:43:38.307Z,2.00
2023-11-15T02:46:07.021Z,2.00
2023-11-15T02:48:34.759Z,1.90
2023-11-15T02:51:02.423Z,1.90
2023-11-15T02:53:30.005Z,1.90
2023-11-15T02:55:57.577Z,1.90
2023-11-15T02:58:25.080Z,1.90
2023-11-15T03:00:52.951Z,1.90
2023-11-15T03:03:21.080Z,1.90
2023-11-15T03:05:48.602Z,1.90
2023-11-15T03:08:18.085Z,1.90
2023-11-15T03:10:46.052Z,1.90
2023-11-15T03:13:14.693Z,1.90
2023-11-15T03:15:42.554Z,1.90
2023-11-15T03:18:11.526Z,1.90
2023-11-15T03:20:39.208Z,1.90
2023-11-15T03:23:06.755Z,1.90
2023-11-15T03:25:34.621Z,1.90
2023-11-15T03:28:02.583Z,1.90
2023-11-15T03:30:30.089Z,1.90
2023-11-15T03:32:58.248Z,1.90
2023-11-15T03:35:26.126Z,1.80
2023-11-15T03:37:53.693Z,1.80
2023-11-15T03:40:21.699Z,1.80
2023-11-15T03:42:49.600Z,1.80
2023-11-15T03:45:17.082Z,1.80
2023-11-15T03:47:44.571Z,1.80
2023-11-15T03:50:13.208Z,1.80
2023-11-15T03:52:40.670Z,1.80
2023-11-15T03:55:08.545Z,1.80
2023-11-15T03:57:36.093Z,1.80
2023-11-15T04:00:07.701Z,1.80
2023-11-15T04:02:35.695Z,1.70
2023-11-15T04:05:03.636Z,1.70
2023-11-15T04:07:31.276Z,1.70
2023-11-15T04:09:58.833Z,1.70
2023-11-15T04:12:27.111Z,1.70
2023-11-15T04:14:54.615Z,1.70
2023-11-15T04:17:22.287Z,1.70
2023-11-15T04:19:49.793Z,1.70
2023-11-15T04:22:18.121Z,1.80
2023-11-15T04:24:46.071Z,1.70
2023-11-15T04:27:14.607Z,1.70
2023-11-15T04:29:42.173Z,1.70
2023-11-15T04:32:10.095Z,1.70
2023-11-15T04:34:37.698Z,1.70
2023-11-15T04:37:05.406Z,1.70
2023-11-15T04:39:32.968Z,1.70
2023-11-15T04:42:00.347Z,1.70
2023-11-15T04:44:28.822Z,1.70
2023-11-15T04:46:56.620Z,1.70
2023-11-15T04:49:24.007Z,1.70
2023-11-15T04:51:51.642Z,1.70
2023-11-15T04:54:19.175Z,1.70
2023-11-15T04:56:46.838Z,1.70
2023-11-15T04:59:14.553Z,1.60
2023-11-15T05:01:43.327Z,1.60
2023-11-15T05:04:11.384Z,1.60
2023-11-15T05:06:39.015Z,1.60
2023-11-15T05:09:06.637Z,1.60
2023-11-15T05:11:34.160Z,1.60
2023-11-15T05:14:01.809Z,1.60
2023-11-15T05:16:29.511Z,1.60
2023-11-15T05:18:56.897Z,1.50
2023-11-15T05:21:24.355Z,1.50
2023-11-15T05:23:52.959Z,1.50
2023-11-15T05:26:20.591Z,1.40
2023-11-15T05:28:48.161Z,1.40
2023-11-15T05:31:15.640Z,1.40
2023-11-15T05:33:43.728Z,1.40
2023-11-15T05:36:11.496Z,1.40
2023-11-15T05:38:38.990Z,1.40
2023-11-15T05:41:09.118Z,1.30
2023-11-15T05:43:36.473Z,1.30
2023-11-15T05:46:04.306Z,1.30
2023-11-15T05:48:34.692Z,1.30
2023-11-15T05:51:03.293Z,1.30
2023-11-15T05:53:30.961Z,1.20
2023-11-15T05:55:59.280Z,1.20
2023-11-15T05:58:27.386Z,1.20
2023-11-15T06:00:54.890Z,1.20
2023-11-15T06:03:22.353Z,1.20
2023-11-15T06:05:50.052Z,1.20
2023-11-15T06:08:17.711Z,1.20
2023-11-15T06:10:45.222Z,1.20
2023-11-15T06:13:16.277Z,1.20
2023-11-15T06:15:45.097Z,1.10
2023-11-15T06:18:12.813Z,1.20
2023-11-15T06:20:40.462Z,1.20
2023-11-15T06:23:08.856Z,1.20
2023-11-15T06:25:37.026Z,1.20
2023-11-15T06:28:07.201Z,1.20
2023-11-15T06:30:35.937Z,1.20
2023-11-15T06:33:03.712Z,1.20
2023-11-15T06:35:31.743Z,1.20
2023-11-15T06:38:02.792Z,1.20
2023-11-15T06:40:30.288Z,1.20
2023-11-15T06:42:58.470Z,1.20
2023-11-15T06:45:26.030Z,1.20
2023-11-15T06:47:55.203Z,1.20
2023-11-15T06:50:22.625Z,1.20
2023-11-15T06:52:50.037Z,1.20
2023-11-15T06:55:17.605Z,1.30
2023-11-15T06:57:46.055Z,1.30
2023-11-15T07:00:14.460Z,1.30
2023-11-15T07:02:45.122Z,1.30
2023-11-15T07:05:12.807Z,1.30
2023-11-15T07:07:41.436Z,1.30
2023-11-15T07:10:09.909Z,1.30
2023-11-15T07:12:37.480Z,1.40
2023-11-15T07:15:08.978Z,1.40
2023-11-15T07:17:36.785Z,1.40
2023-11-15T07:20:07.763Z,1.40
2023-11-15T07:22:37.620Z,1.40
2023-11-15T07:25:08.502Z,1.40
2023-11-15T07:27:36.075Z,1.50
2023-11-15T07:30:03.815Z,1.50
2023-11-15T07:32:31.389Z,1.50
2023-11-15T07:34:59.040Z,1.50
2023-11-15T07:37:26.552Z,1.60
2023-11-15T07:39:54.102Z,1.60
2023-11-15T07:42:21.675Z,1.60
2023-11-15T07:44:50.024Z,1.60
2023-11-15T07:47:19.031Z,1.70
2023-11-15T07:49:46.535Z,1.70
2023-11-15T07:52:14.165Z,1.70
2023-11-15T07:54:41.708Z,1.80
2023-11-15T07:57:09.428Z,1.80
2023-11-15T07:59:37.467Z,1.80
2023-11-15T08:02:05.014Z,1.90
2023-11-15T08:04:33.080Z,1.90
2023-11-15T08:07:00.661Z,1.90
2023-11-15T08:09:33.931Z,1.90
2023-11-15T08:12:02.656Z,1.90
2023-11-15T08:14:32.366Z,1.90
2023-11-15T08:17:00.540Z,1.90
2023-11-15T08:19:28.344Z,1.90
2023-11-15T08:21:58.086Z,1.90
2023-11-15T08:24:26.056Z,1.90
2023-11-15T08:26:57.693Z,2.00
2023-11-15T08:29:25.322Z,2.00
2023-11-15T08:31:52.987Z,2.00
2023-11-15T08:34:25.893Z,2.00
2023-11-15T08:36:54.608Z,2.00
2023-11-15T08:39:24.198Z,2.10
2023-11-15T08:41:52.041Z,2.10
2023-11-15T08:44:19.780Z,2.10
2023-11-15T08:46:47.434Z,2.20
2023-11-15T08:49:17.712Z,2.20
2023-11-15T08:51:48.829Z,2.20
2023-11-15T08:54:17.609Z,2.20
2023-11-15T08:56:47.327Z,2.20
2023-11-15T08:59:20.525Z,2.20
2023-11-15T09:01:49.018Z,2.20
2023-11-15T09:04:18.066Z,2.30
2023-11-15T09:06:49.681Z,2.30
2023-11-15T09:09:18.076Z,2.30
2023-11-15T09:11:46.538Z,2.30
2023-11-15T09:14:16.166Z,2.30
2023-11-15T09:16:46.283Z,2.30
2023-11-15T09:19:18.375Z,2.30
2023-11-15T09:21:49.942Z,2.30
2023-11-15T09:24:23.808Z,2.30
2023-11-15T09:26:52.374Z,2.40
2023-11-15T09:29:21.995Z,2.40
2023-11-15T09:31:49.386Z,2.40
2023-11-15T09:34:18.004Z,2.40
2023-11-15T09:36:46.192Z,2.40
2023-11-15T09:39:17.918Z,2.40
2023-11-15T09:41:55.551Z,2.40
2023-11-15T09:44:25.320Z,2.40
2023-11-15T09:46:59.758Z,2.40
2023-11-15T09:49:27.987Z,2.40
2023-11-15T09:51:55.713Z,2.40
2023-11-15T09:54:25.222Z,2.40
2023-11-15T09:56:52.996Z,2.40
2023-11-15T09:59:20.785Z,2.40
2023-11-15T10:01:52.606Z,2.30
2023-11-15T10:04:27.989Z,2.30
2023-11-15T10:07:05.862Z,2.30
2023-11-15T10:09:40.067Z,2.30
2023-11-15T10:12:08.782Z,2.30
2023-11-15T10:14:52.775Z,2.40
2023-11-15T10:17:22.243Z,2.40
2023-11-15T10:19:50.102Z,2.40
2023-11-15T10:22:19.378Z,2.50
2023-11-15T10:25:07.508Z,2.60
2023-11-15T10:27:39.337Z,2.60
2023-11-15T10:30:17.680Z,2.60
2023-11-15T10:32:50.956Z,2.60
2023-11-15T10:35:33.050Z,2.60
2023-11-15T10:38:01.945Z,2.70
2023-11-15T10:40:31.692Z,2.70
2023-11-15T10:43:00.454Z,2.70
2023-11-15T10:45:32.595Z,2.60
2023-11-15T10:48:07.154Z,2.60
2023-11-15T10:50:39.250Z,2.60
2023-11-15T10:53:09.544Z,2.50
2023-11-15T10:55:40.400Z,2.50
2023-11-15T10:58:13.071Z,2.50
2023-11-15T11:00:44.177Z,2.50
2023-11-15T11:03:13.195Z,2.50
2023-11-15T11:05:56.550Z,2.60
2023-11-15T11:08:33.025Z,2.60
2023-11-15T11:11:12.600Z,2.60
2023-11-15T11:13:42.244Z,2.70
2023-11-15T11:16:35.067Z,2.70
2023-11-15T11:19:23.551Z,2.70
2023-11-15T11:22:07.477Z,2.70
2023-11-15T11:24:41.276Z,2.70
2023-11-15T11:27:17.407Z,2.60
2023-11-15T11:29:50.913Z,2.60
2023-11-15T11:32:28.439Z,2.60
2023-11-15T11:35:04.689Z,2.70
2023-11-15T11:37:51.743Z,2.80
2023-11-15T11:40:25.012Z,2.80
2023-11-15T11:42:56.540Z,2.80
2023-11-15T11:45:28.391Z,2.80
2023-11-15T11:47:56.311Z,2.80
2023-11-15T11:50:25.441Z,2.80
2023-11-15T11:52:56.438Z,2.80
2023-11-15T11:55:24.715Z,2.90
2023-11-15T11:57:52.888Z,2.90
2023-11-15T12:00:22.865Z,2.90
2023-11-15T12:03:01.043Z,2.90
2023-11-15T12:05:33.921Z,2.80
2023-11-15T12:08:04.311Z,2.70
2023-11-15T12:10:32.066Z,2.70
2023-11-15T12:13:05.812Z,2.60
2023-11-15T12:15:40.401Z,2.60
2023-11-15T12:18:09.438Z,2.60
2023-11-15T12:20:40.965Z,2.60
2023-11-15T12:23:16.733Z,2.60
2023-11-15T12:25:49.683Z,2.60
2023-11-15T12:28:24.392Z,2.60
2023-11-15T12:30:54.284Z,2.60
2023-11-15T12:33:22.525Z,2.60
2023-11-15T12:35:54.651Z,2.60
2023-11-15T12:38:22.148Z,2.60
2023-11-15T12:40:50.528Z,2.60
2023-11-15T12:43:21.048Z,2.50
2023-11-15T12:45:52.769Z,2.50
2023-11-15T12:48:21.279Z,2.40
2023-11-15T12:50:49.627Z,2.40
2023-11-15T12:53:23.578Z,2.40
2023-11-15T12:55:52.709Z,2.40
2023-11-15T12:58:24.110Z,2.30
2023-11-15T13:00:58.933Z,2.30
2023-11-15T13:03:29.902Z,2.30
2023-11-15T13:06:11.120Z,2.30
2023-11-15T13:08:39.953Z,2.20
2023-11-15T13:11:07.711Z,2.20
2023-11-15T13:13:35.321Z,2.20
2023-11-15T13:16:02.821Z,2.20
2023-11-15T13:18:30.355Z,2.20
2023-11-15T13:20:59.465Z,2.10
2023-11-15T13:23:28.658Z,2.20
2023-11-15T13:25:56.321Z,2.20
2023-11-15T13:28:23.727Z,2.10
2023-11-15T13:30:51.245Z,2.10
2023-11-15T13:33:21.899Z,2.10
2023-11-15T13:35:49.548Z,2.10
2023-11-15T13:38:17.540Z,2.10
2023-11-15T13:40:46.227Z,2.10
2023-11-15T13:43:13.731Z,2.00
2023-11-15T13:45:43.647Z,2.00
2023-11-15T13:48:11.267Z,2.00
2023-11-15T13:50:38.908Z,2.00
2023-11-15T13:53:06.476Z,2.00
2023-11-15T13:55:33.967Z,1.90
2023-11-15T13:58:01.730Z,1.90
2023-11-15T14:00:35.179Z,1.80
2023-11-15T14:03:08.002Z,1.80
2023-11-15T14:05:36.023Z,1.70
2023-11-15T14:08:05.179Z,1.70
2023-11-15T14:10:33.097Z,1.60
2023-11-15T14:13:05.115Z,1.60
2023-11-15T14:15:34.905Z,1.60
2023-11-15T14:18:04.606Z,1.60
2023-11-15T14:20:33.004Z,1.60
2023-11-15T14:23:00.452Z,1.60
2023-11-15T14:25:33.680Z,1.60
2023-11-15T14:28:03.987Z,1.60
2023-11-15T14:30:31.524Z,1.60
2023-11-15T14:32:59.862Z,1.60
2023-11-15T14:35:27.711Z,1.60
2023-11-15T14:37:57.538Z,1.60
2023-11-15T14:40:26.054Z,1.60
2023-11-15T14:42:57.441Z,1.60
2023-11-15T14:45:29.157Z,1.50
2023-11-15T14:47:57.736Z,1.60
2023-11-15T14:50:25.737Z,1.50
2023-11-15T14:53:11.982Z,1.50
2023-11-15T14:55:39.606Z,1.50
2023-11-15T14:58:09.053Z,1.50
2023-11-15T15:00:38.194Z,1.50
2023-11-15T15:03:06.992Z,1.50
2023-11-15T15:05:34.434Z,1.50
2023-11-15T15:08:02.055Z,1.50
2023-11-15T15:10:29.551Z,1.50
2023-11-15T15:12:57.157Z,1.40
2023-11-15T15:15:25.017Z,1.50
2023-11-15T15:17:52.707Z,1.40
2023-11-15T15:20:20.869Z,1.40
2023-11-15T15:22:48.668Z,1.40
2023-11-15T15:25:17.510Z,1.50
2023-11-15T15:27:45.607Z,1.40
2023-11-15T15:30:18.239Z,1.40
2023-11-15T15:32:47.242Z,1.40
2023-11-15T15:35:15.725Z,1.40
2023-11-15T15:37:48.211Z,1.40
2023-11-15T15:40:18.068Z,1.40
2023-11-15T15:42:46.321Z,1.40
2023-11-15T15:45:16.422Z,1.40
2023-11-15T15:47:48.778Z,1.40
2023-11-15T15:50:17.139Z,1.40
2023-11-15T15:52:45.584Z,1.40
2023-11-15T15:55:13.795Z,1.40
2023-11-15T15:57:44.164Z,1.40
2023-11-15T16:00:13.607Z,1.30
2023-11-15T16:02:41.251Z,1.40
2023-11-15T16:05:09.260Z,1.30
2023-11-15T16:07:36.873Z,1.40
2023-11-15T16:10:05.899Z,1.30
2023-11-15T16:12:33.766Z,1.40
2023-11-15T16:15:01.378Z,1.30
2023-11-15T16:17:31.512Z,1.30
2023-11-15T16:19:59.082Z,1.30
2023-11-15T16:22:26.627Z,1.30
2023-11-15T16:24:55.892Z,1.30
2023-11-15T16:27:28.700Z,1.30
2023-11-15T16:30:02.501Z,1.30
2023-11-15T16:32:30.686Z,1.30
2023-11-15T16:34:58.792Z,1.30
2023-11-15T16:37:26.383Z,1.30
2023-11-15T16:39:54.038Z,1.30
2023-11-15T16:42:21.887Z,1.30
2023-11-15T16:44:49.584Z,1.30
2023-11-15T16:47:17.132Z,1.30
2023-11-15T16:49:44.631Z,1.30
2023-11-15T16:52:12.184Z,1.30
2023-11-15T16:54:39.792Z,1.30
2023-11-15T16:57:08.315Z,1.30
2023-11-15T16:59:36.143Z,1.30
2023-11-15T17:02:03.897Z,1.30
2023-11-15T17:04:31.572Z,1.30
2023-11-15T17:07:00.110Z,1.30
2023-11-15T17:09:27.741Z,1.30
2023-11-15T17:11:55.324Z,1.20
2023-11-15T17:14:22.744Z,1.20
2023-11-15T17:16:50.553Z,1.20
2023-11-15T17:19:20.929Z,1.30
2023-11-15T17:21:49.746Z,1.30
2023-11-15T17:24:17.402Z,1.30
2023-11-15T17:26:47.344Z,1.30
2023-11-15T17:29:15.597Z,1.30
2023-11-15T17:31:43.353Z,1.30
2023-11-15T17:34:12.757Z,1.30
2023-11-15T17:36:42.232Z,1.20
2023-11-15T17:39:13.037Z,1.20
2023-11-15T17:41:41.676Z,1.20
2023-11-15T17:44:13.049Z,1.30
2023-11-15T17:46:44.600Z,1.20
2023-11-15T17:49:12.605Z,1.20
2023-11-15T17:51:40.087Z,1.20
2023-11-15T17:54:08.764Z,1.20
2023-11-15T17:56:36.341Z,1.20
2023-11-15T17:59:04.835Z,1.20
2023-11-15T18:01:40.092Z,1.20
2023-11-15T18:04:16.074Z,1.20
2023-11-15T18:06:44.798Z,1.20
2023-11-15T18:09:13.471Z,1.20
2023-11-15T18:11:41.102Z,1.20
2023-11-15T18:14:09.158Z,1.20
2023-11-15T18:16:36.706Z,1.20
2023-11-15T18:19:09.694Z,1.20
2023-11-15T18:21:39.139Z,1.10
2023-11-15T18:24:07.940Z,1.10
2023-11-15T18:26:37.205Z,1.20
2023-11-15T18:29:05.457Z,1.20
2023-11-15T18:31:32.863Z,1.20
2023-11-15T18:34:01.038Z,1.10
2023-11-15T18:36:30.385Z,1.20
2023-11-15T18:38:58.478Z,1.10
2023-11-15T18:41:26.418Z,1.10
2023-11-15T18:43:57.618Z,1.10
2023-11-15T18:46:26.129Z,1.10
2023-11-15T18:48:53.770Z,1.10
2023-11-15T18:51:24.055Z,1.10
2023-11-15T18:53:51.628Z,1.10
2023-11-15T18:56:19.106Z,1.10
2023-11-15T18:58:47.081Z,1.10
2023-11-15T19:01:14.750Z,1.10
2023-11-15T19:03:42.819Z,1.10
2023-11-15T19:06:10.590Z,1.10
2023-11-15T19:08:38.083Z,1.10
2023-11-15T19:11:07.181Z,1.10
2023-11-15T19:13:34.690Z,1.10
2023-11-15T19:16:01.982Z,1.10
2023-11-15T19:18:30.256Z,1.10
2023-11-15T19:20:59.300Z,1.10
2023-11-15T19:23:27.115Z,1.10
2023-11-15T19:25:54.735Z,1.10
2023-11-15T19:28:22.651Z,1.10
2023-11-15T19:30:51.283Z,1.10
2023-11-15T19:33:20.705Z,1.10
2023-11-15T19:35:49.935Z,1.10
2023-11-15T19:38:17.755Z,1.10
2023-11-15T19:40:45.808Z,1.10
2023-11-15T19:43:13.141Z,1.10
2023-11-15T19:45:40.740Z,1.10
2023-11-15T19:48:08.138Z,1.10
2023-11-15T19:50:35.875Z,1.10
2023-11-15T19:53:08.411Z,1.20
2023-11-15T19:55:37.185Z,1.10
2023-11-15T19:58:06.172Z,1.10
2023-11-15T20:00:36.820Z,1.10
2023-11-15T20:03:05.129Z,1.10
2023-11-15T20:05:32.659Z,1.10
2023-11-15T20:08:00.211Z,1.10
2023-11-15T20:10:29.334Z,1.10
2023-11-15T20:12:56.869Z,1.10
2023-11-15T20:15:24.450Z,1.10
2023-11-15T20:17:52.793Z,1.10
2023-11-15T20:20:24.345Z,1.10
2023-11-15T20:22:53.831Z,1.10
2023-11-15T20:25:22.502Z,1.10
2023-11-15T20:27:50.684Z,1.10
2023-11-15T20:30:19.831Z,1.10
2023-11-15T20:32:48.425Z,1.10
2023-11-15T20:35:16.988Z,1.10
2023-11-15T20:37:44.426Z,1.00
2023-11-15T20:40:16.625Z,1.10
2023-11-15T20:42:48.052Z,1.00
2023-11-15T20:45:16.324Z,1.00
2023-11-15T20:47:44.311Z,1.00
2023-11-15T20:50:13.205Z,1.00
2023-11-15T20:52:41.304Z,1.00
2023-11-15T20:55:10.222Z,0.90
2023-11-15T20:57:38.498Z,0.90
2023-11-15T21:00:14.863Z,1.00
2023-11-15T21:02:42.658Z,0.90
2023-11-15T21:05:12.737Z,0.90
2023-11-15T21:07:40.972Z,0.90
2023-11-15T21:10:09.512Z,0.90
2023-11-15T21:12:37.077Z,0.90
2023-11-15T21:15:11.024Z,0.90
2023-11-15T21:17:38.973Z,0.90
2023-11-15T21:20:12.130Z,0.90
2023-11-15T21:22:44.370Z,0.90
2023-11-15T21:25:15.160Z,0.90
2023-11-15T21:27:43.882Z,0.90
2023-11-15T21:30:17.714Z,0.90
2023-11-15T21:32:45.462Z,0.90
2023-11-15T21:35:13.272Z,0.90
2023-11-15T21:37:42.275Z,0.90
2023-11-15T21:40:11.478Z,0.80
2023-11-15T21:42:40.635Z,0.90
2023-11-15T21:45:09.018Z,0.80
2023-11-15T21:47:36.728Z,0.90
2023-11-15T21:50:05.998Z,0.90
2023-11-15T21:52:36.459Z,0.90
2023-11-15T21:55:05.381Z,0.90
2023-11-15T21:57:32.868Z,0.80
2023-11-15T22:00:01.636Z,0.80
2023-11-15T22:03:09.415Z,0.80
2023-11-15T22:05:36.997Z,0.80
2023-11-15T22:08:04.585Z,0.80
2023-11-15T22:10:32.172Z,0.80
2023-11-15T22:12:59.730Z,0.70
2023-11-15T22:15:29.670Z,0.70
2023-11-15T22:17:57.242Z,0.70
2023-11-15T22:20:24.697Z,0.70
2023-11-15T22:22:52.733Z,0.70
2023-11-15T22:25:20.652Z,0.70
2023-11-15T22:27:48.622Z,0.70
2023-11-15T22:30:16.450Z,0.70
2023-11-15T22:32:44.652Z,0.70
2023-11-15T22:35:13.095Z,0.70
2023-11-15T22:37:40.529Z,0.70
2023-11-15T22:40:08.460Z,0.70
2023-11-15T22:42:36.727Z,0.70
2023-11-15T22:45:05.984Z,0.70
2023-11-15T22:47:33.501Z,0.70
2023-11-15T22:50:00.942Z,0.70
2023-11-15T22:52:28.600Z,0.70
2023-11-15T22:54:56.255Z,0.70
2023-11-15T22:57:23.844Z,0.70
2023-11-15T22:59:52.545Z,0.70
2023-11-15T23:02:20.722Z,0.70
2023-11-15T23:04:48.309Z,0.70
2023-11-15T23:07:21.845Z,0.70
2023-11-15T23:09:50.248Z,0.70
2023-11-15T23:12:17.891Z,0.70
2023-11-15T23:14:45.359Z,0.60
2023-11-15T23:17:13.178Z,0.60
2023-11-15T23:19:40.922Z,0.60
2023-11-15T23:22:08.296Z,0.60
2023-11-15T23:24:35.878Z,0.70
2023-11-15T23:27:03.319Z,0.70
2023-11-15T23:29:30.900Z,0.70
2023-11-15T23:31:58.888Z,0.70
2023-11-15T23:34:26.170Z,0.70
2023-11-15T23:36:53.590Z,0.70
2023-11-15T23:39:24.401Z,0.70
2023-11-15T23:41:51.931Z,0.70
2023-11-15T23:44:22.298Z,0.70
2023-11-15T23:46:52.437Z,0.70
2023-11-15T23:49:20.220Z,0.70
2023-11-15T23:51:47.683Z,0.70
2023-11-15T23:54:15.213Z,0.70
2023-11-15T23:56:43.447Z,0.70
2023-11-15T23:59:11.186Z,0.70
